createdAt,value
2022-09-15T00:02:05.476Z,25.30
2022-09-15T00:07:04.616Z,21.60
2022-09-15T00:12:03.929Z,21.10
2022-09-15T00:17:03.368Z,23.00
2022-09-15T00:22:02.483Z,16.00
2022-09-15T00:27:01.778Z,19.40
2022-09-15T00:32:01.073Z,13.10
2022-09-15T00:37:00.372Z,12.00
2022-09-15T00:42:00.671Z,10.90
2022-09-15T00:47:18.161Z,13.40
2022-09-15T00:51:59.130Z,15.40
2022-09-15T00:56:57.410Z,15.90
2022-09-15T01:01:57.781Z,11.50
2022-09-15T01:06:55.889Z,8.40
2022-09-15T01:11:56.174Z,10.00
2022-09-15T01:17:17.855Z,7.90
2022-09-15T01:21:58.135Z,11.10
2022-09-15T01:26:52.904Z,6.50
2022-09-15T01:31:53.232Z,7.80
2022-09-15T01:36:51.330Z,6.90
2022-09-15T01:41:50.642Z,7.00
2022-09-15T01:46:50.973Z,6.30
2022-09-15T01:51:49.286Z,6.30
2022-09-15T01:56:48.599Z,8.60
2022-09-15T02:01:48.949Z,8.10
2022-09-15T02:06:47.016Z,5.90
2022-09-15T02:11:47.328Z,6.20
2022-09-15T02:16:47.670Z,5.90
2022-09-15T02:21:44.775Z,6.10
2022-09-15T02:26:44.062Z,6.40
2022-09-15T02:31:42.424Z,7.20
2022-09-15T02:36:42.548Z,5.40
2022-09-15T02:41:43.817Z,5.10
2022-09-15T02:46:42.108Z,5.50
2022-09-15T02:51:40.388Z,4.30
2022-09-15T02:56:39.689Z,4.50
2022-09-15T03:01:39.017Z,4.30
2022-09-15T03:06:39.131Z,4.70
2022-09-15T03:11:37.402Z,3.90
2022-09-15T03:16:37.742Z,3.50
2022-09-15T03:21:36.854Z,3.50
2022-09-15T03:26:36.131Z,3.40
2022-09-15T03:31:34.501Z,3.10
2022-09-15T03:36:35.616Z,4.10
2022-09-15T03:41:32.901Z,4.50
2022-09-15T03:46:32.210Z,6.30
2022-09-15T03:51:31.499Z,3.50
2022-09-15T03:56:30.806Z,4.50
2022-09-15T04:01:30.253Z,3.80
2022-09-15T04:06:29.253Z,4.20
2022-09-15T04:11:29.553Z,2.70
2022-09-15T04:16:28.896Z,3.20
2022-09-15T04:21:27.021Z,3.30
2022-09-15T04:26:26.323Z,4.60
2022-09-15T04:31:26.728Z,5.30
2022-09-15T04:36:25.815Z,5.10
2022-09-15T04:41:24.121Z,4.50
2022-09-15T04:46:24.465Z,4.50
2022-09-15T04:51:23.784Z,5.60
2022-09-15T04:56:22.113Z,2.40
2022-09-15T05:01:21.491Z,4.00
2022-09-15T05:06:20.611Z,3.20
2022-09-15T05:11:19.942Z,2.60
2022-09-15T05:16:20.349Z,2.90
2022-09-15T05:21:19.459Z,3.40
2022-09-15T05:26:18.804Z,2.70
2022-09-15T05:31:16.987Z,2.80
2022-09-15T05:36:16.140Z,3.00
2022-09-15T05:41:15.466Z,2.90
2022-09-15T05:46:16.711Z,2.20
2022-09-15T05:51:14.817Z,3.20
2022-09-15T05:56:13.153Z,3.00
2022-09-15T06:01:12.305Z,3.60
2022-09-15T06:06:11.420Z,2.90
2022-09-15T06:11:11.713Z,3.90
2022-09-15T06:16:09.884Z,1.90
2022-09-15T06:21:08.992Z,1.90
2022-09-15T06:26:10.300Z,2.10
2022-09-15T06:31:07.613Z,2.30
2022-09-15T06:36:06.894Z,2.10
2022-09-15T06:41:05.189Z,1.30
2022-09-15T06:46:05.520Z,1.60
2022-09-15T06:51:06.679Z,1.80
2022-09-15T06:56:04.999Z,1.60
2022-09-15T07:01:04.264Z,1.50
2022-09-15T07:06:02.553Z,4.10
2022-09-15T07:11:02.859Z,2.10
2022-09-15T07:16:01.173Z,2.10
2022-09-15T07:21:02.323Z,21.80
2022-09-15T07:25:59.617Z,3.20
2022-09-15T07:30:58.931Z,3.50
2022-09-15T07:36:00.226Z,4.20
2022-09-15T07:40:58.518Z,3.80
2022-09-15T07:45:55.874Z,3.00
2022-09-15T07:50:58.040Z,2.80
2022-09-15T07:55:55.322Z,2.50
2022-09-15T08:00:54.768Z,3.50
2022-09-15T08:05:53.914Z,3.60
2022-09-15T08:10:53.421Z,2.80
2022-09-15T08:15:51.641Z,3.50
2022-09-15T08:20:50.874Z,4.70
2022-09-15T08:25:51.053Z,4.60
2022-09-15T08:30:50.411Z,3.00
2022-09-15T08:35:49.508Z,3.10
2022-09-15T08:40:49.925Z,2.90
2022-09-15T08:45:48.024Z,4.40
2022-09-15T08:50:48.379Z,2.40
2022-09-15T08:55:46.506Z,3.70
2022-09-15T09:00:45.947Z,8.10
2022-09-15T09:05:45.152Z,2.90
2022-09-15T09:10:44.324Z,3.20
2022-09-15T09:15:43.765Z,4.40
2022-09-15T09:20:43.603Z,3.50
2022-09-15T09:25:42.134Z,3.30
2022-09-15T09:30:41.303Z,2.50
2022-09-15T09:35:40.401Z,4.40
2022-09-15T09:40:39.628Z,2.80
2022-09-15T09:45:38.907Z,3.80
2022-09-15T09:50:38.142Z,3.60
2022-09-15T09:55:37.275Z,3.00
2022-09-15T10:00:36.606Z,3.50
2022-09-15T10:05:36.003Z,3.20
2022-09-15T10:10:35.205Z,3.30
2022-09-15T10:15:34.356Z,4.90
2022-09-15T10:20:34.504Z,4.50
2022-09-15T10:25:49.390Z,5.00
2022-09-15T10:30:31.818Z,3.90
2022-09-15T10:35:31.032Z,4.80
2022-09-15T10:40:30.281Z,4.30
2022-09-15T10:45:29.452Z,3.70
2022-09-15T10:50:28.529Z,2.80
2022-09-15T10:55:48.550Z,2.70
2022-09-15T11:00:27.054Z,3.70
2022-09-15T11:05:26.173Z,7.30
2022-09-15T11:10:26.480Z,2.40
2022-09-15T11:15:24.850Z,4.60
2022-09-15T11:20:23.997Z,4.10
2022-09-15T11:25:23.092Z,7.20
2022-09-15T11:30:22.424Z,3.00
2022-09-15T11:35:21.773Z,6.50
2022-09-15T11:40:22.086Z,5.90
2022-09-15T11:45:20.303Z,6.10
2022-09-15T11:50:20.385Z,4.70
2022-09-15T11:55:18.694Z,5.70
2022-09-15T12:00:18.019Z,4.50
2022-09-15T12:05:18.449Z,3.10
2022-09-15T12:10:16.683Z,3.80
2022-09-15T12:15:15.161Z,4.50
2022-09-15T12:20:16.319Z,5.10
2022-09-15T12:25:14.497Z,3.90
2022-09-15T12:30:12.779Z,5.70
2022-09-15T12:35:13.718Z,3.80
2022-09-15T12:40:12.125Z,7.40
2022-09-15T12:45:11.315Z,10.70
2022-09-15T12:50:10.541Z,9.50
2022-09-15T12:55:09.652Z,10.20
2022-09-15T13:00:09.009Z,5.30
2022-09-15T13:05:08.196Z,2.70
2022-09-15T13:10:07.366Z,2.20
2022-09-15T13:15:08.651Z,2.80
2022-09-15T13:20:05.811Z,4.80
2022-09-15T13:25:05.001Z,2.50
2022-09-15T13:30:05.138Z,2.00
2022-09-15T13:35:13.455Z,2.50
2022-09-15T13:40:01.867Z,3.70
2022-09-15T13:45:00.840Z,1.90
2022-09-15T13:50:02.197Z,3.30
2022-09-15T13:55:00.308Z,4.60
2022-09-15T13:59:59.689Z,4.20
2022-09-15T14:04:58.937Z,4.40
2022-09-15T14:09:58.091Z,3.80
2022-09-15T14:14:58.271Z,5.70
2022-09-15T14:19:57.429Z,5.10
2022-09-15T14:24:55.735Z,1.60
2022-09-15T14:29:55.906Z,4.30
2022-09-15T14:34:53.062Z,4.10
2022-09-15T14:39:53.278Z,3.80
2022-09-15T14:49:51.699Z,2.10
2022-09-15T14:54:51.933Z,4.20
2022-09-15T14:59:49.180Z,7.80
2022-09-15T15:04:49.382Z,6.30
2022-09-15T15:09:48.631Z,3.60
2022-09-15T15:14:48.811Z,2.50
2022-09-15T15:19:46.996Z,2.30
2022-09-15T15:24:47.132Z,3.60
2022-09-15T15:29:44.494Z,3.20
2022-09-15T15:34:43.608Z,1.80
2022-09-15T15:39:43.904Z,1.50
2022-09-15T15:44:44.266Z,2.10
2022-09-15T15:50:02.274Z,3.20
2022-09-15T15:54:41.594Z,2.10
2022-09-15T15:59:39.794Z,1.70
2022-09-15T16:04:42.987Z,1.40
2022-09-15T16:09:40.258Z,1.00
2022-09-15T16:14:37.400Z,1.10
2022-09-15T16:19:37.624Z,0.70
2022-09-15T16:24:37.833Z,4.20
2022-09-15T16:29:35.016Z,1.60
2022-09-15T16:34:37.222Z,1.10
2022-09-15T16:39:35.344Z,0.90
2022-09-15T16:44:33.762Z,0.70
2022-09-15T16:49:32.979Z,1.00
2022-09-15T16:54:32.176Z,1.40
2022-09-15T16:59:32.323Z,1.10
2022-09-15T17:04:30.452Z,1.00
2022-09-15T17:09:29.943Z,1.60
2022-09-15T17:14:30.035Z,1.40
2022-09-15T17:19:28.335Z,1.40
2022-09-15T17:24:28.468Z,1.00
2022-09-15T17:29:26.821Z,1.30
2022-09-15T17:34:26.234Z,1.10
2022-09-15T17:39:25.378Z,3.60
2022-09-15T17:44:24.766Z,0.80
2022-09-15T17:49:23.957Z,2.60
2022-09-15T17:54:23.242Z,1.10
2022-09-15T17:59:22.499Z,1.30
2022-09-15T18:04:21.805Z,1.10
2022-09-15T18:09:22.032Z,0.90
2022-09-15T18:14:20.380Z,1.40
2022-09-15T18:19:19.672Z,2.60
2022-09-15T18:24:20.881Z,4.10
2022-09-15T18:29:18.009Z,2.60
2022-09-15T18:34:18.354Z,2.60
2022-09-15T18:39:18.494Z,4.00
2022-09-15T18:44:15.643Z,6.40
2022-09-15T18:49:14.681Z,2.80
2022-09-15T18:54:14.990Z,2.50
2022-09-15T18:59:16.658Z,1.70
2022-09-15T19:04:14.635Z,2.40
2022-09-15T19:09:11.750Z,2.90
2022-09-15T19:14:10.715Z,4.10
2022-09-15T19:19:11.166Z,6.40
2022-09-15T19:24:09.448Z,92.20
2022-09-15T19:29:10.781Z,264.40
2022-09-15T19:34:09.963Z,171.40
2022-09-15T19:39:08.086Z,231.80
2022-09-15T19:44:09.460Z,277.30
2022-09-15T19:49:06.691Z,273.40
2022-09-15T19:54:06.864Z,361.10
2022-09-15T19:59:03.963Z,422.20
2022-09-15T22:33:38.517Z,136.70
2022-09-15T22:38:36.831Z,134.70
2022-09-15T22:43:37.145Z,193.20
2022-09-15T22:48:39.665Z,315.40
2022-09-15T22:53:35.551Z,310.80
2022-09-15T22:58:33.833Z,234.10
2022-09-15T23:03:33.129Z,208.90
2022-09-15T23:08:33.387Z,187.80
2022-09-15T23:13:31.720Z,180.50
2022-09-15T23:18:30.809Z,156.80
2022-09-15T23:23:30.078Z,155.70
2022-09-15T23:28:30.334Z,140.60
2022-09-15T23:33:29.574Z,142.00
2022-09-15T23:38:27.835Z,164.30
2022-09-15T23:43:27.096Z,136.00
2022-09-15T23:48:26.345Z,122.40
2022-09-15T23:53:26.694Z,115.00
2022-09-15T23:58:24.954Z,108.10
